HID weather

Horn Island Airport
Horn Island, Queensland, Australia

Public forecast

Using degrees Celsius for public forecast. Weather courtesy of forecast.io.

Current aviation weather report (METAR) for Horn Island Airport

Retrieved 2020/05/26 18:30 UTC (28 minutes ago):

YHID 261830Z AUTO 13009KT 9999 // SCT017 25/21 Q1014 RF000/0000

Aviation forecast (TAF) for Horn Island Airport

Retrieved 2020/05/26 18:00 UTC (58 minutes ago):

TAF YHID 261659Z 2618/2718 13016KT 9999 SCT018